sensor_id;sensor_type;location;lat;lon;timestamp;temperature;humidity
22629;DHT22;11481;53.694;9.910;2023-02-08T00:01:47;1.00;99.90
22629;DHT22;11481;53.694;9.910;2023-02-08T00:04:13;1.00;99.90
22629;DHT22;11481;53.694;9.910;2023-02-08T00:06:40;1.00;99.90
22629;DHT22;11481;53.694;9.910;2023-02-08T00:09:07;1.00;99.90
22629;DHT22;11481;53.694;9.910;2023-02-08T00:11:34;1.00;99.90
22629;DHT22;11481;53.694;9.910;2023-02-08T00:14:02;0.90;99.90
22629;DHT22;11481;53.694;9.910;2023-02-08T00:16:28;0.90;99.90
22629;DHT22;11481;53.694;9.910;2023-02-08T00:18:55;0.80;99.90
22629;DHT22;11481;53.694;9.910;2023-02-08T00:21:23;0.80;99.90
22629;DHT22;11481;53.694;9.910;2023-02-08T00:23:50;0.70;99.90
22629;DHT22;11481;53.694;9.910;2023-02-08T00:26:16;0.70;99.90
22629;DHT22;11481;53.694;9.910;2023-02-08T00:28:43;0.60;99.90
22629;DHT22;11481;53.694;9.910;2023-02-08T00:31:10;0.70;99.90
22629;DHT22;11481;53.694;9.910;2023-02-08T00:33:37;0.70;99.90
22629;DHT22;11481;53.694;9.910;2023-02-08T00:36:06;0.70;99.90
22629;DHT22;11481;53.694;9.910;2023-02-08T00:38:33;0.70;99.90
22629;DHT22;11481;53.694;9.910;2023-02-08T00:41:00;0.80;99.90
22629;DHT22;11481;53.694;9.910;2023-02-08T00:43:27;0.70;99.90
22629;DHT22;11481;53.694;9.910;2023-02-08T00:45:55;0.70;99.90
22629;DHT22;11481;53.694;9.910;2023-02-08T00:48:21;0.60;99.90
22629;DHT22;11481;53.694;9.910;2023-02-08T00:50:58;0.60;99.90
22629;DHT22;11481;53.694;9.910;2023-02-08T00:53:24;0.60;99.90
22629;DHT22;11481;53.694;9.910;2023-02-08T00:55:53;0.70;99.90
22629;DHT22;11481;53.694;9.910;2023-02-08T00:58:20;0.70;99.90
22629;DHT22;11481;53.694;9.910;2023-02-08T01:00:50;0.60;99.90
22629;DHT22;11481;53.694;9.910;2023-02-08T01:03:19;0.60;99.90
22629;DHT22;11481;53.694;9.910;2023-02-08T01:05:45;0.50;99.90
22629;DHT22;11481;53.694;9.910;2023-02-08T01:08:12;0.50;99.90
22629;DHT22;11481;53.694;9.910;2023-02-08T01:10:39;0.40;99.90
22629;DHT22;11481;53.694;9.910;2023-02-08T01:13:06;0.50;99.90
22629;DHT22;11481;53.694;9.910;2023-02-08T01:15:33;0.50;99.90
22629;DHT22;11481;53.694;9.910;2023-02-08T01:17:59;0.50;99.90
22629;DHT22;11481;53.694;9.910;2023-02-08T01:20:26;0.50;99.90
22629;DHT22;11481;53.694;9.910;2023-02-08T01:22:52;0.50;99.90
22629;DHT22;11481;53.694;9.910;2023-02-08T01:25:19;0.50;99.90
22629;DHT22;11481;53.694;9.910;2023-02-08T01:27:46;0.50;99.90
22629;DHT22;11481;53.694;9.910;2023-02-08T01:30:13;0.40;99.90
22629;DHT22;11481;53.694;9.910;2023-02-08T01:32:39;0.30;99.90
22629;DHT22;11481;53.694;9.910;2023-02-08T01:35:06;0.20;99.90
22629;DHT22;11481;53.694;9.910;2023-02-08T01:37:33;0.10;99.90
22629;DHT22;11481;53.694;9.910;2023-02-08T01:39:59;0.00;99.90
22629;DHT22;11481;53.694;9.910;2023-02-08T01:42:26;-0.10;99.90
22629;DHT22;11481;53.694;9.910;2023-02-08T01:47:43;0.00;99.90
22629;DHT22;11481;53.694;9.910;2023-02-08T01:50:11;0.00;99.90
22629;DHT22;11481;53.694;9.910;2023-02-08T01:52:37;-0.10;99.90
22629;DHT22;11481;53.694;9.910;2023-02-08T01:55:13;-0.20;99.90
22629;DHT22;11481;53.694;9.910;2023-02-08T01:57:41;-0.10;99.90
22629;DHT22;11481;53.694;9.910;2023-02-08T02:00:15;0.00;99.90
22629;DHT22;11481;53.694;9.910;2023-02-08T02:02:44;0.00;99.90
22629;DHT22;11481;53.694;9.910;2023-02-08T02:05:13;0.00;99.90
22629;DHT22;11481;53.694;9.910;2023-02-08T02:07:41;0.00;99.90
22629;DHT22;11481;53.694;9.910;2023-02-08T02:10:13;0.00;99.90
22629;DHT22;11481;53.694;9.910;2023-02-08T02:12:41;0.00;99.90
22629;DHT22;11481;53.694;9.910;2023-02-08T02:15:08;0.00;99.90
22629;DHT22;11481;53.694;9.910;2023-02-08T02:17:36;0.00;99.90
22629;DHT22;11481;53.694;9.910;2023-02-08T02:20:30;0.00;99.90
22629;DHT22;11481;53.694;9.910;2023-02-08T02:23:28;0.00;99.90
22629;DHT22;11481;53.694;9.910;2023-02-08T02:26:35;0.00;99.90
22629;DHT22;11481;53.694;9.910;2023-02-08T02:31:56;-0.20;99.90
22629;DHT22;11481;53.694;9.910;2023-02-08T02:45:25;0.00;99.90
22629;DHT22;11481;53.694;9.910;2023-02-08T02:48:11;0.10;99.90
22629;DHT22;11481;53.694;9.910;2023-02-08T02:50:44;0.10;99.90
22629;DHT22;11481;53.694;9.910;2023-02-08T02:53:21;0.10;99.90
22629;DHT22;11481;53.694;9.910;2023-02-08T02:55:55;0.10;99.90
22629;DHT22;11481;53.694;9.910;2023-02-08T02:58:25;0.10;99.90
22629;DHT22;11481;53.694;9.910;2023-02-08T03:00:58;0.10;99.90
22629;DHT22;11481;53.694;9.910;2023-02-08T03:03:27;0.10;99.90
22629;DHT22;11481;53.694;9.910;2023-02-08T03:05:59;0.10;99.90
22629;DHT22;11481;53.694;9.910;2023-02-08T03:11:24;0.10;99.90
22629;DHT22;11481;53.694;9.910;2023-02-08T03:13:57;0.20;99.90
22629;DHT22;11481;53.694;9.910;2023-02-08T03:22:04;0.20;99.90
22629;DHT22;11481;53.694;9.910;2023-02-08T03:24:40;0.10;99.90
22629;DHT22;11481;53.694;9.910;2023-02-08T03:30:27;0.10;99.90
22629;DHT22;11481;53.694;9.910;2023-02-08T03:33:27;0.10;99.90
22629;DHT22;11481;53.694;9.910;2023-02-08T03:38:47;0.00;99.90
22629;DHT22;11481;53.694;9.910;2023-02-08T03:41:22;0.00;99.90
22629;DHT22;11481;53.694;9.910;2023-02-08T03:44:01;-0.10;99.90
22629;DHT22;11481;53.694;9.910;2023-02-08T03:46:33;0.00;99.90
22629;DHT22;11481;53.694;9.910;2023-02-08T03:49:07;0.00;99.90
22629;DHT22;11481;53.694;9.910;2023-02-08T03:51:37;0.00;99.90
22629;DHT22;11481;53.694;9.910;2023-02-08T03:54:08;0.00;99.90
22629;DHT22;11481;53.694;9.910;2023-02-08T03:56:54;0.10;99.90
22629;DHT22;11481;53.694;9.910;2023-02-08T03:59:28;0.10;99.90
22629;DHT22;11481;53.694;9.910;2023-02-08T04:01:59;0.10;99.90
22629;DHT22;11481;53.694;9.910;2023-02-08T04:04:30;0.10;99.90
22629;DHT22;11481;53.694;9.910;2023-02-08T04:06:58;0.10;99.90
22629;DHT22;11481;53.694;9.910;2023-02-08T04:09:25;0.00;99.90
22629;DHT22;11481;53.694;9.910;2023-02-08T04:11:52;0.00;99.90
22629;DHT22;11481;53.694;9.910;2023-02-08T04:14:18;-0.10;99.90
22629;DHT22;11481;53.694;9.910;2023-02-08T04:16:45;-0.10;99.90
22629;DHT22;11481;53.694;9.910;2023-02-08T04:19:12;-0.20;99.90
22629;DHT22;11481;53.694;9.910;2023-02-08T04:21:39;-0.20;99.90
22629;DHT22;11481;53.694;9.910;2023-02-08T04:24:05;-0.20;99.90
22629;DHT22;11481;53.694;9.910;2023-02-08T04:26:32;-0.20;99.90
22629;DHT22;11481;53.694;9.910;2023-02-08T04:28:59;-0.30;99.90
22629;DHT22;11481;53.694;9.910;2023-02-08T04:31:26;-0.30;99.90
22629;DHT22;11481;53.694;9.910;2023-02-08T04:33:53;-0.30;99.90
22629;DHT22;11481;53.694;9.910;2023-02-08T04:36:19;-0.30;99.90
22629;DHT22;11481;53.694;9.910;2023-02-08T04:38:46;-0.40;99.90
22629;DHT22;11481;53.694;9.910;2023-02-08T04:41:12;-0.40;99.90
22629;DHT22;11481;53.694;9.910;2023-02-08T04:43:39;-0.50;99.90
22629;DHT22;11481;53.694;9.910;2023-02-08T04:46:06;-0.40;99.90
22629;DHT22;11481;53.694;9.910;2023-02-08T04:48:32;-0.50;99.90
22629;DHT22;11481;53.694;9.910;2023-02-08T04:50:59;-0.40;99.90
22629;DHT22;11481;53.694;9.910;2023-02-08T04:53:26;-0.40;99.90
22629;DHT22;11481;53.694;9.910;2023-02-08T04:55:53;-0.40;99.90
22629;DHT22;11481;53.694;9.910;2023-02-08T04:58:20;-0.40;99.90
22629;DHT22;11481;53.694;9.910;2023-02-08T05:00:47;-0.40;99.90
22629;DHT22;11481;53.694;9.910;2023-02-08T05:03:14;-0.40;99.90
22629;DHT22;11481;53.694;9.910;2023-02-08T05:05:41;-0.40;99.90
22629;DHT22;11481;53.694;9.910;2023-02-08T05:08:08;-0.40;99.90
22629;DHT22;11481;53.694;9.910;2023-02-08T05:10:35;-0.40;99.90
22629;DHT22;11481;53.694;9.910;2023-02-08T05:13:01;-0.50;99.90
22629;DHT22;11481;53.694;9.910;2023-02-08T05:15:28;-0.40;99.90
22629;DHT22;11481;53.694;9.910;2023-02-08T05:17:55;-0.50;99.90
22629;DHT22;11481;53.694;9.910;2023-02-08T05:20:22;-0.40;99.90
22629;DHT22;11481;53.694;9.910;2023-02-08T05:22:48;-0.40;99.90
22629;DHT22;11481;53.694;9.910;2023-02-08T05:25:15;-0.40;99.90
22629;DHT22;11481;53.694;9.910;2023-02-08T05:27:43;-0.50;99.90
22629;DHT22;11481;53.694;9.910;2023-02-08T05:30:10;-0.40;99.90
22629;DHT22;11481;53.694;9.910;2023-02-08T05:32:37;-0.40;99.90
22629;DHT22;11481;53.694;9.910;2023-02-08T05:35:04;-0.40;99.90
22629;DHT22;11481;53.694;9.910;2023-02-08T05:37:33;-0.40;99.90
22629;DHT22;11481;53.694;9.910;2023-02-08T05:40:00;-0.40;99.90
22629;DHT22;11481;53.694;9.910;2023-02-08T05:42:27;-0.50;99.90
22629;DHT22;11481;53.694;9.910;2023-02-08T05:44:54;-0.50;99.90
22629;DHT22;11481;53.694;9.910;2023-02-08T05:47:20;-0.60;99.90
22629;DHT22;11481;53.694;9.910;2023-02-08T05:49:47;-0.60;99.90
22629;DHT22;11481;53.694;9.910;2023-02-08T05:52:14;-0.60;99.90
22629;DHT22;11481;53.694;9.910;2023-02-08T05:54:40;-0.60;99.90
22629;DHT22;11481;53.694;9.910;2023-02-08T05:57:07;-0.60;99.90
22629;DHT22;11481;53.694;9.910;2023-02-08T05:59:34;-0.60;99.90
22629;DHT22;11481;53.694;9.910;2023-02-08T06:02:01;-0.70;99.90
22629;DHT22;11481;53.694;9.910;2023-02-08T06:04:27;-0.70;99.90
22629;DHT22;11481;53.694;9.910;2023-02-08T06:06:54;-0.70;99.90
22629;DHT22;11481;53.694;9.910;2023-02-08T06:09:21;-0.70;99.90
22629;DHT22;11481;53.694;9.910;2023-02-08T06:11:48;-0.70;99.90
22629;DHT22;11481;53.694;9.910;2023-02-08T06:14:15;-0.70;99.90
22629;DHT22;11481;53.694;9.910;2023-02-08T06:16:42;-0.70;99.90
22629;DHT22;11481;53.694;9.910;2023-02-08T06:19:09;-0.70;99.90
22629;DHT22;11481;53.694;9.910;2023-02-08T06:21:35;-0.70;99.90
22629;DHT22;11481;53.694;9.910;2023-02-08T06:24:02;-0.60;99.90
22629;DHT22;11481;53.694;9.910;2023-02-08T06:26:29;-0.60;99.90
22629;DHT22;11481;53.694;9.910;2023-02-08T06:28:59;-0.50;99.90
22629;DHT22;11481;53.694;9.910;2023-02-08T06:31:26;-0.50;99.90
22629;DHT22;11481;53.694;9.910;2023-02-08T06:33:54;-0.50;99.90
22629;DHT22;11481;53.694;9.910;2023-02-08T06:36:20;-0.50;99.90
22629;DHT22;11481;53.694;9.910;2023-02-08T06:38:47;-0.50;99.90
22629;DHT22;11481;53.694;9.910;2023-02-08T06:41:16;-0.60;99.90
22629;DHT22;11481;53.694;9.910;2023-02-08T06:43:43;-0.60;99.90
22629;DHT22;11481;53.694;9.910;2023-02-08T06:46:10;-0.50;99.90
22629;DHT22;11481;53.694;9.910;2023-02-08T06:48:37;-0.60;99.90
22629;DHT22;11481;53.694;9.910;2023-02-08T06:51:05;-0.60;99.90
22629;DHT22;11481;53.694;9.910;2023-02-08T06:53:32;-0.70;99.90
22629;DHT22;11481;53.694;9.910;2023-02-08T06:55:59;-0.70;99.90
22629;DHT22;11481;53.694;9.910;2023-02-08T06:58:26;-0.60;99.90
22629;DHT22;11481;53.694;9.910;2023-02-08T07:00:52;-0.70;99.90
22629;DHT22;11481;53.694;9.910;2023-02-08T07:03:20;-0.70;99.90
22629;DHT22;11481;53.694;9.910;2023-02-08T07:05:48;-0.70;99.90
22629;DHT22;11481;53.694;9.910;2023-02-08T07:08:31;-0.70;99.90
22629;DHT22;11481;53.694;9.910;2023-02-08T07:10:58;-0.70;99.90
22629;DHT22;11481;53.694;9.910;2023-02-08T07:13:25;-0.60;99.90
22629;DHT22;11481;53.694;9.910;2023-02-08T07:15:52;-0.60;99.90
22629;DHT22;11481;53.694;9.910;2023-02-08T07:18:18;-0.60;99.90
22629;DHT22;11481;53.694;9.910;2023-02-08T07:20:45;-0.50;99.90
22629;DHT22;11481;53.694;9.910;2023-02-08T07:23:14;-0.50;99.90
22629;DHT22;11481;53.694;9.910;2023-02-08T07:25:40;-0.50;99.90
22629;DHT22;11481;53.694;9.910;2023-02-08T07:28:07;-0.40;99.90
22629;DHT22;11481;53.694;9.910;2023-02-08T07:30:34;-0.30;99.90
22629;DHT22;11481;53.694;9.910;2023-02-08T07:33:01;-0.40;99.90
22629;DHT22;11481;53.694;9.910;2023-02-08T07:35:27;-0.30;99.90
22629;DHT22;11481;53.694;9.910;2023-02-08T07:37:54;-0.30;99.90
22629;DHT22;11481;53.694;9.910;2023-02-08T07:40:21;-0.30;99.90
22629;DHT22;11481;53.694;9.910;2023-02-08T07:42:47;-0.30;99.90
22629;DHT22;11481;53.694;9.910;2023-02-08T07:45:14;-0.20;99.90
22629;DHT22;11481;53.694;9.910;2023-02-08T07:47:41;-0.20;99.90
22629;DHT22;11481;53.694;9.910;2023-02-08T07:50:08;-0.20;99.90
22629;DHT22;11481;53.694;9.910;2023-02-08T07:52:34;-0.20;99.90
22629;DHT22;11481;53.694;9.910;2023-02-08T07:55:01;-0.10;99.90
22629;DHT22;11481;53.694;9.910;2023-02-08T07:57:28;-0.10;99.90
22629;DHT22;11481;53.694;9.910;2023-02-08T07:59:55;0.00;99.90
22629;DHT22;11481;53.694;9.910;2023-02-08T08:02:22;0.00;99.90
22629;DHT22;11481;53.694;9.910;2023-02-08T08:04:49;0.00;99.90
22629;DHT22;11481;53.694;9.910;2023-02-08T08:07:15;0.10;99.90
22629;DHT22;11481;53.694;9.910;2023-02-08T08:09:42;0.10;99.90
22629;DHT22;11481;53.694;9.910;2023-02-08T08:12:09;0.10;99.90
22629;DHT22;11481;53.694;9.910;2023-02-08T08:14:36;0.10;99.90
22629;DHT22;11481;53.694;9.910;2023-02-08T08:17:02;0.00;99.90
22629;DHT22;11481;53.694;9.910;2023-02-08T08:19:29;0.00;99.90
22629;DHT22;11481;53.694;9.910;2023-02-08T08:21:56;0.00;99.90
22629;DHT22;11481;53.694;9.910;2023-02-08T08:24:22;0.00;99.90
22629;DHT22;11481;53.694;9.910;2023-02-08T08:26:49;0.10;99.90
22629;DHT22;11481;53.694;9.910;2023-02-08T08:29:16;0.10;99.90
22629;DHT22;11481;53.694;9.910;2023-02-08T08:31:43;0.20;99.90
22629;DHT22;11481;53.694;9.910;2023-02-08T08:34:10;0.20;99.90
22629;DHT22;11481;53.694;9.910;2023-02-08T08:36:37;0.20;99.90
22629;DHT22;11481;53.694;9.910;2023-02-08T08:39:03;0.20;99.90
22629;DHT22;11481;53.694;9.910;2023-02-08T08:41:30;0.30;99.90
22629;DHT22;11481;53.694;9.910;2023-02-08T08:43:57;0.30;99.90
22629;DHT22;11481;53.694;9.910;2023-02-08T08:46:23;0.40;99.90
22629;DHT22;11481;53.694;9.910;2023-02-08T08:48:51;0.40;99.90
22629;DHT22;11481;53.694;9.910;2023-02-08T08:51:17;0.50;99.90
22629;DHT22;11481;53.694;9.910;2023-02-08T08:53:44;0.50;99.90
22629;DHT22;11481;53.694;9.910;2023-02-08T08:56:12;0.50;99.90
22629;DHT22;11481;53.694;9.910;2023-02-08T08:58:40;0.60;99.90
22629;DHT22;11481;53.694;9.910;2023-02-08T09:01:09;0.60;99.90
22629;DHT22;11481;53.694;9.910;2023-02-08T09:03:35;0.70;99.90
22629;DHT22;11481;53.694;9.910;2023-02-08T09:06:03;0.70;99.90
22629;DHT22;11481;53.694;9.910;2023-02-08T09:08:29;0.70;99.90
22629;DHT22;11481;53.694;9.910;2023-02-08T09:11:02;0.70;99.90
22629;DHT22;11481;53.694;9.910;2023-02-08T09:13:29;0.80;99.90
22629;DHT22;11481;53.694;9.910;2023-02-08T09:16:03;0.90;99.90
22629;DHT22;11481;53.694;9.910;2023-02-08T09:18:30;0.90;99.90
22629;DHT22;11481;53.694;9.910;2023-02-08T09:20:57;1.00;99.90
22629;DHT22;11481;53.694;9.910;2023-02-08T09:23:24;1.10;99.90
22629;DHT22;11481;53.694;9.910;2023-02-08T09:25:51;1.10;99.90
22629;DHT22;11481;53.694;9.910;2023-02-08T09:28:18;1.10;99.90
22629;DHT22;11481;53.694;9.910;2023-02-08T09:30:44;1.20;99.90
22629;DHT22;11481;53.694;9.910;2023-02-08T09:33:13;1.30;99.90
22629;DHT22;11481;53.694;9.910;2023-02-08T09:35:41;1.30;99.90
22629;DHT22;11481;53.694;9.910;2023-02-08T09:38:09;1.30;99.90
22629;DHT22;11481;53.694;9.910;2023-02-08T09:40:45;1.40;99.90
22629;DHT22;11481;53.694;9.910;2023-02-08T09:43:29;1.50;99.90
22629;DHT22;11481;53.694;9.910;2023-02-08T09:46:06;1.60;99.90
22629;DHT22;11481;53.694;9.910;2023-02-08T09:48:36;1.70;99.90
22629;DHT22;11481;53.694;9.910;2023-02-08T09:51:11;1.70;99.90
22629;DHT22;11481;53.694;9.910;2023-02-08T09:53:43;1.70;99.90
22629;DHT22;11481;53.694;9.910;2023-02-08T09:56:15;1.80;99.90
22629;DHT22;11481;53.694;9.910;2023-02-08T09:58:45;2.00;99.90
22629;DHT22;11481;53.694;9.910;2023-02-08T10:01:20;2.00;99.90
22629;DHT22;11481;53.694;9.910;2023-02-08T10:03:49;2.20;99.90
22629;DHT22;11481;53.694;9.910;2023-02-08T10:06:18;2.30;99.90
22629;DHT22;11481;53.694;9.910;2023-02-08T10:08:49;2.40;99.90
22629;DHT22;11481;53.694;9.910;2023-02-08T10:11:39;2.40;99.90
22629;DHT22;11481;53.694;9.910;2023-02-08T10:16:59;2.70;99.90
22629;DHT22;11481;53.694;9.910;2023-02-08T10:22:34;2.80;99.90
22629;DHT22;11481;53.694;9.910;2023-02-08T10:25:37;2.80;99.90
22629;DHT22;11481;53.694;9.910;2023-02-08T10:28:18;3.00;99.90
22629;DHT22;11481;53.694;9.910;2023-02-08T10:36:25;3.10;99.90
22629;DHT22;11481;53.694;9.910;2023-02-08T10:38:54;3.10;99.90
22629;DHT22;11481;53.694;9.910;2023-02-08T10:41:31;3.10;99.90
22629;DHT22;11481;53.694;9.910;2023-02-08T10:44:10;3.20;99.90
22629;DHT22;11481;53.694;9.910;2023-02-08T10:50:05;3.20;99.90
22629;DHT22;11481;53.694;9.910;2023-02-08T10:52:33;3.20;99.90
22629;DHT22;11481;53.694;9.910;2023-02-08T10:55:00;3.30;99.90
22629;DHT22;11481;53.694;9.910;2023-02-08T10:57:31;3.30;99.90
22629;DHT22;11481;53.694;9.910;2023-02-08T11:00:04;3.30;99.90
22629;DHT22;11481;53.694;9.910;2023-02-08T11:02:38;3.30;99.90
22629;DHT22;11481;53.694;9.910;2023-02-08T11:05:12;3.40;99.90
22629;DHT22;11481;53.694;9.910;2023-02-08T11:07:39;3.40;99.90
22629;DHT22;11481;53.694;9.910;2023-02-08T11:10:23;3.50;99.90
22629;DHT22;11481;53.694;9.910;2023-02-08T11:13:03;3.50;99.90
22629;DHT22;11481;53.694;9.910;2023-02-08T11:15:59;3.60;99.90
22629;DHT22;11481;53.694;9.910;2023-02-08T11:18:52;3.70;99.90
22629;DHT22;11481;53.694;9.910;2023-02-08T11:21:33;3.80;99.90
22629;DHT22;11481;53.694;9.910;2023-02-08T11:24:05;3.70;99.90
22629;DHT22;11481;53.694;9.910;2023-02-08T11:26:37;3.90;99.90
22629;DHT22;11481;53.694;9.910;2023-02-08T11:29:20;4.00;99.90
22629;DHT22;11481;53.694;9.910;2023-02-08T11:36:52;4.10;99.90
22629;DHT22;11481;53.694;9.910;2023-02-08T11:39:28;4.10;99.90
22629;DHT22;11481;53.694;9.910;2023-02-08T11:41:58;4.20;99.90
22629;DHT22;11481;53.694;9.910;2023-02-08T11:44:36;4.30;99.90
22629;DHT22;11481;53.694;9.910;2023-02-08T11:47:05;4.20;99.90
22629;DHT22;11481;53.694;9.910;2023-02-08T11:49:41;4.30;99.90
22629;DHT22;11481;53.694;9.910;2023-02-08T11:52:35;4.40;99.90
22629;DHT22;11481;53.694;9.910;2023-02-08T11:55:24;4.50;99.90
22629;DHT22;11481;53.694;9.910;2023-02-08T12:00:28;4.60;99.90
22629;DHT22;11481;53.694;9.910;2023-02-08T12:02:59;4.70;99.90
22629;DHT22;11481;53.694;9.910;2023-02-08T12:14:19;4.90;99.90
22629;DHT22;11481;53.694;9.910;2023-02-08T12:19:39;5.00;99.90
22629;DHT22;11481;53.694;9.910;2023-02-08T12:22:15;5.10;99.90
22629;DHT22;11481;53.694;9.910;2023-02-08T12:27:48;5.30;99.90
22629;DHT22;11481;53.694;9.910;2023-02-08T12:30:35;5.20;99.90
22629;DHT22;11481;53.694;9.910;2023-02-08T12:33:21;5.20;99.90
22629;DHT22;11481;53.694;9.910;2023-02-08T12:36:09;5.40;99.90
22629;DHT22;11481;53.694;9.910;2023-02-08T12:47:09;5.60;99.90
22629;DHT22;11481;53.694;9.910;2023-02-08T12:49:54;5.70;99.90
22629;DHT22;11481;53.694;9.910;2023-02-08T12:52:36;5.70;99.90
22629;DHT22;11481;53.694;9.910;2023-02-08T12:57:52;5.80;99.90
22629;DHT22;11481;53.694;9.910;2023-02-08T13:00:31;5.80;99.90
22629;DHT22;11481;53.694;9.910;2023-02-08T13:05:45;6.00;99.90
22629;DHT22;11481;53.694;9.910;2023-02-08T13:08:40;6.10;99.90
22629;DHT22;11481;53.694;9.910;2023-02-08T13:11:14;6.20;99.90
22629;DHT22;11481;53.694;9.910;2023-02-08T13:13:55;6.20;99.90
22629;DHT22;11481;53.694;9.910;2023-02-08T13:16:38;6.30;99.90
22629;DHT22;11481;53.694;9.910;2023-02-08T13:19:54;6.40;99.90
22629;DHT22;11481;53.694;9.910;2023-02-08T13:22:26;6.50;99.90
22629;DHT22;11481;53.694;9.910;2023-02-08T13:24:53;6.70;99.90
22629;DHT22;11481;53.694;9.910;2023-02-08T13:27:33;6.70;99.90
22629;DHT22;11481;53.694;9.910;2023-02-08T13:30:00;6.80;99.90
22629;DHT22;11481;53.694;9.910;2023-02-08T13:32:34;6.80;99.90
22629;DHT22;11481;53.694;9.910;2023-02-08T13:37:37;6.80;99.90
22629;DHT22;11481;53.694;9.910;2023-02-08T13:42:38;6.80;99.90
22629;DHT22;11481;53.694;9.910;2023-02-08T13:45:20;6.90;99.90
22629;DHT22;11481;53.694;9.910;2023-02-08T13:48:02;6.90;99.90
22629;DHT22;11481;53.694;9.910;2023-02-08T13:50:52;6.90;99.90
22629;DHT22;11481;53.694;9.910;2023-02-08T13:56:07;7.10;99.90
22629;DHT22;11481;53.694;9.910;2023-02-08T13:58:56;7.10;99.90
22629;DHT22;11481;53.694;9.910;2023-02-08T14:01:26;7.10;99.90
22629;DHT22;11481;53.694;9.910;2023-02-08T14:06:44;7.20;99.90
22629;DHT22;11481;53.694;9.910;2023-02-08T14:09:26;7.30;99.90
22629;DHT22;11481;53.694;9.910;2023-02-08T14:12:14;7.40;99.90
22629;DHT22;11481;53.694;9.910;2023-02-08T14:17:46;7.60;99.90
22629;DHT22;11481;53.694;9.910;2023-02-08T14:20:32;7.70;99.90
22629;DHT22;11481;53.694;9.910;2023-02-08T14:23:03;7.70;99.90
22629;DHT22;11481;53.694;9.910;2023-02-08T14:25:45;7.70;99.90
22629;DHT22;11481;53.694;9.910;2023-02-08T14:31:07;7.70;99.90
22629;DHT22;11481;53.694;9.910;2023-02-08T14:33:38;7.80;99.90
22629;DHT22;11481;53.694;9.910;2023-02-08T14:36:28;7.80;99.90
22629;DHT22;11481;53.694;9.910;2023-02-08T14:41:49;7.90;99.90
22629;DHT22;11481;53.694;9.910;2023-02-08T14:50:09;8.00;99.90
22629;DHT22;11481;53.694;9.910;2023-02-08T14:52:42;8.10;99.90
22629;DHT22;11481;53.694;9.910;2023-02-08T14:55:15;8.10;99.90
22629;DHT22;11481;53.694;9.910;2023-02-08T14:57:43;8.10;99.90
22629;DHT22;11481;53.694;9.910;2023-02-08T15:00:21;8.10;99.90
22629;DHT22;11481;53.694;9.910;2023-02-08T15:02:48;8.10;99.90
22629;DHT22;11481;53.694;9.910;2023-02-08T15:05:26;8.10;99.90
22629;DHT22;11481;53.694;9.910;2023-02-08T15:07:55;8.10;99.90
22629;DHT22;11481;53.694;9.910;2023-02-08T15:10:24;8.10;99.90
22629;DHT22;11481;53.694;9.910;2023-02-08T15:12:54;8.00;99.90
22629;DHT22;11481;53.694;9.910;2023-02-08T15:15:25;8.00;99.90
22629;DHT22;11481;53.694;9.910;2023-02-08T15:17:54;8.10;99.90
22629;DHT22;11481;53.694;9.910;2023-02-08T15:20:27;8.10;99.90
22629;DHT22;11481;53.694;9.910;2023-02-08T15:23:17;8.10;99.90
22629;DHT22;11481;53.694;9.910;2023-02-08T15:25:54;8.20;99.90
22629;DHT22;11481;53.694;9.910;2023-02-08T15:28:23;8.10;99.90
22629;DHT22;11481;53.694;9.910;2023-02-08T15:33:20;8.10;99.90
22629;DHT22;11481;53.694;9.910;2023-02-08T15:36:02;8.10;99.90
22629;DHT22;11481;53.694;9.910;2023-02-08T15:38:32;8.00;99.90
22629;DHT22;11481;53.694;9.910;2023-02-08T15:41:05;8.00;99.90
22629;DHT22;11481;53.694;9.910;2023-02-08T15:43:33;8.00;99.90
22629;DHT22;11481;53.694;9.910;2023-02-08T15:46:21;8.00;99.90
22629;DHT22;11481;53.694;9.910;2023-02-08T15:48:49;7.90;99.90
22629;DHT22;11481;53.694;9.910;2023-02-08T15:51:16;8.00;99.90
22629;DHT22;11481;53.694;9.910;2023-02-08T15:53:48;7.90;99.90
22629;DHT22;11481;53.694;9.910;2023-02-08T15:56:25;7.80;99.90
22629;DHT22;11481;53.694;9.910;2023-02-08T15:59:04;7.80;99.90
22629;DHT22;11481;53.694;9.910;2023-02-08T16:01:33;7.80;99.90
22629;DHT22;11481;53.694;9.910;2023-02-08T16:04:02;7.70;99.90
22629;DHT22;11481;53.694;9.910;2023-02-08T16:06:48;7.60;99.90
22629;DHT22;11481;53.694;9.910;2023-02-08T16:09:19;7.60;99.90
22629;DHT22;11481;53.694;9.910;2023-02-08T16:11:48;7.60;99.90
22629;DHT22;11481;53.694;9.910;2023-02-08T16:14:17;7.50;99.90
22629;DHT22;11481;53.694;9.910;2023-02-08T16:16:50;7.40;99.90
22629;DHT22;11481;53.694;9.910;2023-02-08T16:19:25;7.30;99.90
22629;DHT22;11481;53.694;9.910;2023-02-08T16:21:54;7.10;99.90
22629;DHT22;11481;53.694;9.910;2023-02-08T16:24:23;7.10;99.90
22629;DHT22;11481;53.694;9.910;2023-02-08T16:26:54;6.90;99.90
22629;DHT22;11481;53.694;9.910;2023-02-08T16:29:30;6.80;99.90
22629;DHT22;11481;53.694;9.910;2023-02-08T16:32:07;6.70;99.90
22629;DHT22;11481;53.694;9.910;2023-02-08T16:34:39;6.60;99.90
22629;DHT22;11481;53.694;9.910;2023-02-08T16:37:20;6.60;99.90
22629;DHT22;11481;53.694;9.910;2023-02-08T16:40:03;6.50;99.90
22629;DHT22;11481;53.694;9.910;2023-02-08T16:42:37;6.50;99.90
22629;DHT22;11481;53.694;9.910;2023-02-08T16:45:18;6.40;99.90
22629;DHT22;11481;53.694;9.910;2023-02-08T16:47:53;6.30;99.90
22629;DHT22;11481;53.694;9.910;2023-02-08T16:50:27;6.20;99.90
22629;DHT22;11481;53.694;9.910;2023-02-08T16:53:02;6.20;99.90
22629;DHT22;11481;53.694;9.910;2023-02-08T16:55:32;6.10;99.90
22629;DHT22;11481;53.694;9.910;2023-02-08T16:58:01;6.00;99.90
22629;DHT22;11481;53.694;9.910;2023-02-08T17:00:33;6.00;99.90
22629;DHT22;11481;53.694;9.910;2023-02-08T17:03:01;5.90;99.90
22629;DHT22;11481;53.694;9.910;2023-02-08T17:05:30;5.90;99.90
22629;DHT22;11481;53.694;9.910;2023-02-08T17:07:58;5.80;99.90
22629;DHT22;11481;53.694;9.910;2023-02-08T17:10:30;5.80;99.90
22629;DHT22;11481;53.694;9.910;2023-02-08T17:12:59;5.70;99.90
22629;DHT22;11481;53.694;9.910;2023-02-08T17:15:47;5.70;99.90
22629;DHT22;11481;53.694;9.910;2023-02-08T17:18:14;5.60;99.90
22629;DHT22;11481;53.694;9.910;2023-02-08T17:20:41;5.60;99.90
22629;DHT22;11481;53.694;9.910;2023-02-08T17:23:08;5.50;99.90
22629;DHT22;11481;53.694;9.910;2023-02-08T17:25:35;5.40;99.90
22629;DHT22;11481;53.694;9.910;2023-02-08T17:28:08;5.20;99.90
22629;DHT22;11481;53.694;9.910;2023-02-08T17:30:39;5.20;99.90
22629;DHT22;11481;53.694;9.910;2023-02-08T17:33:08;5.10;99.90
22629;DHT22;11481;53.694;9.910;2023-02-08T17:35:37;5.10;99.90
22629;DHT22;11481;53.694;9.910;2023-02-08T17:38:04;5.10;99.90
22629;DHT22;11481;53.694;9.910;2023-02-08T17:40:34;5.00;99.90
22629;DHT22;11481;53.694;9.910;2023-02-08T17:43:02;5.00;99.90
22629;DHT22;11481;53.694;9.910;2023-02-08T17:45:29;5.00;99.90
22629;DHT22;11481;53.694;9.910;2023-02-08T17:47:59;4.90;99.90
22629;DHT22;11481;53.694;9.910;2023-02-08T17:50:26;4.80;99.90
22629;DHT22;11481;53.694;9.910;2023-02-08T17:52:52;4.70;99.90
22629;DHT22;11481;53.694;9.910;2023-02-08T17:55:19;4.60;99.90
22629;DHT22;11481;53.694;9.910;2023-02-08T17:57:46;4.60;99.90